aviador You're here:

KMFD Decoded Metar

MANSFIELD in OH, USA
Report Time2018-04-24 18:25:00
UTC Time2018-04-24 18:33:00
Flight Rules mvfr MVFR
Wind100° at 11 kt
W.Decomp.*RWY 14: 9.1 kt HW 6.2 kt LCW
RWY 05: 6.2 kt HW 9.1 kt RCW
W.Rank100° ranks 31
Current wind is above 100° avg. (6.4)
Visibility9999 m
Phenomena:N/A
Clouds:Broken 010 Hf
Overcast 014 Hf
Expected CloudBase > 400 ft AGL from Temp-Dew spread
Ceiling1,000 ft
Temp11°C (ISA -1)
Dew Point10°C (94% RH)
AAT7.1°C
QNH1016 hPa
Density Alt1,194 ft
Elevation1,296 ft
Report Wrong Elevation
Raw Report
KMFD 241825Z 10011KT 10SM BKN010 OVC014 11/10 A3000=

Extra information for KMFD:More info

Metar Taf Metar & Taf Last 4 Metars F.Rules Stats Wind Profile Meteogram Temp Stats Airport Information Weather charts Add Link Nearby VenuesMetar ALERT Operation Metar Decoded Social comments

AIRNAV info for KMFD